Time;durP1;ratioP1;P1;durP2;ratioP2;P2;SDS_P1;SDS_P2;PMS_P1;PMS_P2;Temp;Humidity;BMP_temperature;BMP_pressure;BME280_temperature;BME280_humidity;BME280_pressure;Samples;Min_cycle;Max_cycle;Signal;HPM_P1;HPM_P2
2021/09/26 00:00:59;;;;;;;30.00;14.40;;;17.50;99.90;;;;;;4973683;28;20196;-95
2021/09/26 00:03:25;;;;;;;30.60;17.63;;;17.50;99.90;;;;;;4990066;28;20198;-96
2021/09/26 00:05:51;;;;;;;29.10;16.77;;;17.50;99.90;;;;;;4989016;28;20216;-95
2021/09/26 00:08:17;;;;;;;35.77;17.43;;;17.50;99.90;;;;;;5006427;28;20216;-96
2021/09/26 00:10:43;;;;;;;35.30;15.90;;;17.50;99.90;;;;;;4997856;28;20251;-95
2021/09/26 00:13:09;;;;;;;36.20;17.03;;;17.50;99.90;;;;;;4989878;28;20249;-95
2021/09/26 00:15:34;;;;;;;33.03;15.80;;;17.50;99.90;;;;;;4973986;28;20191;-96
2021/09/26 00:18:00;;;;;;;29.30;17.53;;;17.50;99.90;;;;;;4973424;28;20277;-95
2021/09/26 00:20:27;;;;;;;34.37;16.97;;;17.50;99.90;;;;;;4989182;28;20230;-95
2021/09/26 00:22:53;;;;;;;33.60;18.07;;;17.50;99.90;;;;;;4983133;28;20226;-95
2021/09/26 00:25:20;;;;;;;27.50;14.53;;;17.40;99.90;;;;;;5004998;28;20223;-95
2021/09/26 00:27:46;;;;;;;32.10;16.27;;;17.40;99.90;;;;;;4990064;28;20229;-95
2021/09/26 00:30:16;;;;;;;32.80;14.80;;;17.40;99.90;;;;;;4998470;28;20662;-93
2021/09/26 00:32:43;;;;;;;27.93;15.90;;;17.40;99.90;;;;;;5005922;28;20230;-95
2021/09/26 00:35:10;;;;;;;40.03;15.67;;;17.40;99.90;;;;;;5005943;28;20235;-95
2021/09/26 00:37:36;;;;;;;33.57;15.97;;;17.40;99.90;;;;;;5004115;28;20220;-95
2021/09/26 00:40:03;;;;;;;28.83;16.33;;;17.40;99.90;;;;;;5004917;28;20535;-95
2021/09/26 00:42:29;;;;;;;37.23;17.93;;;17.40;99.90;;;;;;4987103;28;20188;-94
2021/09/26 00:44:55;;;;;;;29.17;16.60;;;17.40;99.90;;;;;;5000730;28;20219;-95
2021/09/26 00:47:20;;;;;;;33.40;16.20;;;17.40;99.90;;;;;;4970365;28;20243;-95
2021/09/26 00:49:47;;;;;;;31.57;14.50;;;17.40;99.90;;;;;;4981064;28;21204;-95
2021/09/26 00:52:13;;;;;;;32.53;16.43;;;17.40;99.90;;;;;;4973141;28;20688;-95
2021/09/26 00:54:41;;;;;;;32.90;17.33;;;17.40;99.90;;;;;;4989226;28;20242;-95
2021/09/26 00:57:07;;;;;;;28.43;16.67;;;17.40;99.90;;;;;;4972747;28;20215;-95
2021/09/26 00:59:33;;;;;;;34.10;16.93;;;17.30;99.90;;;;;;4971983;28;20230;-95
2021/09/26 01:01:59;;;;;;;29.40;15.73;;;17.30;99.90;;;;;;4972251;28;20207;-95
2021/09/26 01:04:26;;;;;;;30.10;15.90;;;17.30;99.90;;;;;;4980272;28;20230;-95
2021/09/26 01:07:20;;;;;;;30.70;16.13;;;17.30;99.90;;;;;;5006467;28;20183;-96
2021/09/26 01:09:56;;;;;;;28.53;15.90;;;17.20;99.90;;;;;;5005574;28;20202;-95
2021/09/26 01:12:47;;;;;;;32.00;16.73;;;17.20;99.90;;;;;;5004779;28;20277;-95
2021/09/26 01:15:43;;;;;;;32.80;15.63;;;17.20;99.90;;;;;;5014050;28;20579;-95
2021/09/26 01:18:32;;;;;;;27.27;14.30;;;17.20;99.90;;;;;;5021016;28;20309;-95
2021/09/26 01:21:06;;;;;;;29.70;15.33;;;17.20;99.90;;;;;;5003079;28;20220;-95
2021/09/26 01:23:59;;;;;;;31.83;14.90;;;17.20;99.90;;;;;;5003113;28;20218;-95
2021/09/26 01:26:42;;;;;;;28.97;14.77;;;17.20;99.90;;;;;;5004202;28;20269;-94
2021/09/26 01:29:14;;;;;;;28.40;15.20;;;17.20;99.90;;;;;;5004603;28;20337;-94
2021/09/26 01:31:44;;;;;;;29.83;15.07;;;17.20;99.90;;;;;;5003240;28;20218;-94
2021/09/26 01:34:27;;;;;;;32.17;14.80;;;17.20;99.90;;;;;;5004841;28;20234;-94
2021/09/26 01:37:07;;;;;;;28.40;14.83;;;17.20;99.90;;;;;;5004292;28;20183;-93
2021/09/26 01:39:52;;;;;;;32.53;16.03;;;17.20;99.90;;;;;;5005116;28;20278;-94
2021/09/26 01:42:24;;;;;;;25.63;13.93;;;17.10;99.90;;;;;;5004145;28;20215;-94
2021/09/26 01:45:00;;;;;;;31.97;15.87;;;17.10;99.90;;;;;;5012100;28;20222;-94
2021/09/26 01:47:36;;;;;;;29.23;15.00;;;17.10;99.90;;;;;;5003968;28;21359;-94
2021/09/26 01:50:05;;;;;;;31.57;14.87;;;17.10;99.90;;;;;;5006153;28;20215;-94
2021/09/26 01:52:34;;;;;;;34.03;13.97;;;17.10;99.90;;;;;;5004123;28;20215;-95
2021/09/26 01:55:01;;;;;;;34.53;14.63;;;17.10;99.90;;;;;;5004829;28;20242;-95
2021/09/26 01:57:27;;;;;;;24.97;15.77;;;17.10;99.90;;;;;;5004825;28;20202;-95
2021/09/26 01:59:59;;;;;;;28.93;14.43;;;17.10;99.90;;;;;;5011861;28;20207;-95
2021/09/26 02:02:27;;;;;;;24.83;13.63;;;17.10;99.90;;;;;;5003139;28;20223;-95
2021/09/26 02:05:00;;;;;;;26.90;14.13;;;17.00;99.90;;;;;;4987916;28;20226;-95
2021/09/26 02:07:27;;;;;;;28.00;15.67;;;17.00;99.90;;;;;;5004530;28;20219;-95
2021/09/26 02:09:54;;;;;;;29.20;15.37;;;17.10;99.90;;;;;;5003576;28;20244;-95
2021/09/26 02:12:21;;;;;;;31.20;15.57;;;17.00;99.90;;;;;;4988136;28;20603;-95
2021/09/26 02:14:48;;;;;;;24.83;13.80;;;17.00;99.90;;;;;;4987982;28;20559;-95
2021/09/26 02:17:15;;;;;;;36.80;16.47;;;17.10;99.90;;;;;;5003572;28;20317;-95
2021/09/26 02:19:42;;;;;;;27.03;14.43;;;17.00;99.90;;;;;;5004546;28;20250;-96
2021/09/26 02:22:09;;;;;;;30.10;14.60;;;17.10;99.90;;;;;;4987763;28;20227;-95
2021/09/26 02:24:37;;;;;;;24.57;13.67;;;17.10;99.90;;;;;;5004994;28;20203;-95
2021/09/26 02:27:04;;;;;;;26.30;15.00;;;17.00;99.90;;;;;;5006361;28;20611;-95
2021/09/26 02:29:32;;;;;;;29.07;15.20;;;17.10;99.90;;;;;;5007142;28;20214;-95
2021/09/26 02:31:58;;;;;;;30.10;17.20;;;17.00;99.90;;;;;;4991382;28;20258;-95
2021/09/26 02:34:23;;;;;;;29.63;14.87;;;17.00;99.90;;;;;;4974703;28;20649;-94
2021/09/26 02:36:49;;;;;;;27.07;14.23;;;17.00;99.90;;;;;;5001472;28;20195;-94
2021/09/26 02:39:18;;;;;;;25.20;13.73;;;17.10;99.90;;;;;;4991357;28;20282;-95
2021/09/26 02:42:09;;;;;;;30.83;14.20;;;17.10;99.90;;;;;;5006122;28;20223;-94
2021/09/26 02:44:43;;;;;;;28.17;13.97;;;17.10;99.90;;;;;;4974571;28;20764;-95
2021/09/26 02:47:16;;;;;;;27.17;14.00;;;17.00;99.90;;;;;;5002472;28;20215;-94
2021/09/26 02:49:42;;;;;;;29.47;16.03;;;17.00;99.90;;;;;;5003134;28;20227;-95
2021/09/26 02:52:10;;;;;;;31.97;15.00;;;17.00;99.90;;;;;;4985513;28;20621;-95
2021/09/26 02:54:39;;;;;;;26.63;15.90;;;17.00;99.90;;;;;;5003761;28;20231;-95
2021/09/26 02:57:07;;;;;;;23.30;14.20;;;17.00;99.90;;;;;;5005258;28;20309;-95
2021/09/26 02:59:33;;;;;;;26.67;14.77;;;17.00;99.90;;;;;;5006356;28;20227;-95
2021/09/26 03:01:58;;;;;;;25.53;13.70;;;17.00;99.90;;;;;;5003246;28;20249;-95
2021/09/26 03:04:25;;;;;;;24.47;14.93;;;17.00;99.90;;;;;;4969843;28;20250;-95
2021/09/26 03:06:51;;;;;;;24.07;15.17;;;17.00;99.90;;;;;;4977976;28;20207;-95
2021/09/26 03:09:17;;;;;;;23.60;13.43;;;16.90;99.90;;;;;;4986603;28;20518;-94
2021/09/26 03:11:43;;;;;;;23.87;13.33;;;17.00;99.90;;;;;;5002935;28;20696;-95
2021/09/26 03:14:09;;;;;;;27.33;13.73;;;16.90;99.90;;;;;;5005973;28;20230;-96
2021/09/26 03:16:35;;;;;;;25.43;14.60;;;16.90;99.90;;;;;;4988937;28;20280;-95
2021/09/26 03:19:00;;;;;;;28.60;13.83;;;16.90;99.90;;;;;;5005847;28;20660;-94
2021/09/26 03:21:29;;;;;;;21.50;12.23;;;16.90;99.90;;;;;;4974251;28;20271;-95
2021/09/26 03:23:56;;;;;;;22.80;12.47;;;16.90;99.90;;;;;;5006053;28;20314;-95
2021/09/26 03:26:23;;;;;;;28.77;13.27;;;16.80;99.90;;;;;;5009078;28;20219;-94
2021/09/26 03:28:49;;;;;;;26.07;14.50;;;16.80;99.90;;;;;;5005862;28;20262;-95
2021/09/26 03:31:15;;;;;;;24.40;13.73;;;16.80;99.90;;;;;;5006999;28;20219;-94
2021/09/26 03:33:41;;;;;;;23.20;13.13;;;16.70;99.90;;;;;;4990651;28;20218;-95
2021/09/26 03:36:07;;;;;;;29.33;16.33;;;16.70;99.90;;;;;;4989744;28;20731;-95
2021/09/26 03:38:35;;;;;;;29.73;14.00;;;16.70;99.90;;;;;;5005869;28;20207;-95
2021/09/26 03:41:01;;;;;;;22.50;12.63;;;16.70;99.90;;;;;;4974682;28;20219;-95
2021/09/26 03:43:27;;;;;;;27.93;13.20;;;16.50;99.90;;;;;;4974184;28;20302;-95
2021/09/26 03:45:53;;;;;;;31.37;13.50;;;16.50;99.90;;;;;;4989610;28;20210;-95
2021/09/26 03:48:23;;;;;;;32.83;16.07;;;16.40;99.90;;;;;;4975151;28;20188;-95
2021/09/26 03:50:50;;;;;;;23.67;12.63;;;16.30;99.90;;;;;;5005510;28;20212;-95
2021/09/26 03:53:17;;;;;;;27.03;13.97;;;16.30;99.90;;;;;;5006513;28;20227;-94
2021/09/26 03:55:43;;;;;;;25.10;13.40;;;16.20;99.90;;;;;;5006685;28;20243;-95
2021/09/26 03:58:09;;;;;;;26.53;13.17;;;16.10;99.90;;;;;;4990017;28;20235;-95
2021/09/26 04:00:35;;;;;;;23.37;14.47;;;16.10;99.90;;;;;;4974067;28;20198;-95
2021/09/26 04:03:01;;;;;;;25.63;13.70;;;16.00;99.90;;;;;;4980922;28;20250;-94
2021/09/26 04:05:28;;;;;;;26.27;13.37;;;15.90;99.90;;;;;;5006129;28;20222;-95
2021/09/26 04:07:54;;;;;;;24.73;14.50;;;15.90;99.90;;;;;;4989573;28;20247;-95
2021/09/26 04:10:20;;;;;;;26.50;12.90;;;15.90;99.90;;;;;;5006826;28;20312;-95
2021/09/26 04:12:46;;;;;;;29.13;15.60;;;15.90;99.90;;;;;;4973060;28;20242;-94
2021/09/26 04:15:13;;;;;;;27.83;14.10;;;15.80;99.90;;;;;;4990152;28;20812;-95
2021/09/26 04:17:39;;;;;;;25.33;12.90;;;15.80;99.90;;;;;;4974354;28;20585;-94
2021/09/26 04:20:07;;;;;;;24.23;13.63;;;15.70;99.90;;;;;;5005966;28;20688;-95
2021/09/26 04:22:34;;;;;;;30.33;13.33;;;15.60;99.90;;;;;;4972897;28;20223;-95
2021/09/26 04:25:00;;;;;;;21.60;14.27;;;15.60;99.90;;;;;;5006910;28;20209;-92
2021/09/26 04:27:27;;;;;;;23.20;13.33;;;15.50;99.90;;;;;;4989950;28;20223;-94
2021/09/26 04:29:54;;;;;;;24.80;13.33;;;15.50;99.90;;;;;;4998804;28;20235;-95
2021/09/26 04:32:20;;;;;;;24.93;11.90;;;15.50;99.90;;;;;;5011763;28;20215;-95
2021/09/26 04:34:46;;;;;;;27.33;13.67;;;15.40;99.90;;;;;;4988867;28;20505;-95
2021/09/26 04:37:12;;;;;;;37.43;12.47;;;15.30;99.90;;;;;;4989348;28;20278;-95
2021/09/26 04:39:38;;;;;;;35.47;13.03;;;15.20;99.90;;;;;;5006033;28;20730;-95
2021/09/26 04:42:06;;;;;;;27.00;13.23;;;15.10;99.90;;;;;;5006597;28;20277;-95
2021/09/26 04:44:33;;;;;;;36.33;12.33;;;15.00;99.90;;;;;;5006103;28;20227;-95
2021/09/26 04:46:59;;;;;;;45.73;11.70;;;15.00;99.90;;;;;;5005482;28;20240;-95
2021/09/26 04:49:28;;;;;;;34.43;12.30;;;14.90;99.90;;;;;;5005785;28;20219;-94
2021/09/26 04:51:58;;;;;;;51.10;13.07;;;14.80;99.90;;;;;;4973135;28;20195;-94
2021/09/26 04:54:25;;;;;;;60.50;13.40;;;14.70;99.90;;;;;;4995177;28;20298;-94
2021/09/26 04:56:51;;;;;;;43.73;12.57;;;14.50;99.90;;;;;;4999607;28;20326;-95
2021/09/26 04:59:17;;;;;;;52.53;12.53;;;14.60;99.90;;;;;;4989494;28;20344;-93
2021/09/26 05:01:44;;;;;;;99.23;15.60;;;14.70;99.90;;;;;;4983139;28;20223;-95
2021/09/26 05:04:10;;;;;;;140.93;17.53;;;14.90;99.90;;;;;;4985891;28;21170;-95
2021/09/26 05:06:36;;;;;;;48.30;14.07;;;14.90;99.90;;;;;;4987058;28;20195;-94
2021/09/26 05:09:03;;;;;;;85.70;16.60;;;14.80;99.90;;;;;;4987161;28;20219;-96
2021/09/26 05:11:29;;;;;;;68.93;15.70;;;14.90;99.90;;;;;;5004933;28;20640;-94
2021/09/26 05:13:55;;;;;;;171.03;20.50;;;14.80;99.90;;;;;;5005057;28;20235;-95
2021/09/26 05:16:21;;;;;;;81.60;17.30;;;14.70;99.90;;;;;;4970961;28;20685;-94
2021/09/26 05:18:46;;;;;;;81.00;18.57;;;14.80;99.90;;;;;;5005269;28;20202;-95
2021/09/26 05:21:12;;;;;;;110.70;17.43;;;14.90;99.90;;;;;;5005480;28;20246;-94
2021/09/26 05:23:38;;;;;;;112.57;14.90;;;14.80;99.90;;;;;;4987912;28;20688;-94
2021/09/26 05:26:05;;;;;;;138.13;17.07;;;14.80;99.90;;;;;;5004392;28;20227;-95
2021/09/26 05:28:31;;;;;;;87.17;13.77;;;14.60;99.90;;;;;;4998012;28;20219;-95
2021/09/26 05:30:57;;;;;;;193.43;16.97;;;14.50;99.90;;;;;;5004690;28;20198;-94
2021/09/26 05:33:25;;;;;;;120.97;15.23;;;14.40;99.90;;;;;;5004713;28;20238;-94
2021/09/26 05:35:51;;;;;;;149.47;18.30;;;14.50;99.90;;;;;;4972610;28;20274;-94
2021/09/26 05:38:18;;;;;;;166.07;16.23;;;14.60;99.90;;;;;;5005246;28;20227;-94
2021/09/26 05:40:43;;;;;;;140.97;14.70;;;14.60;99.90;;;;;;4997438;28;20305;-94
2021/09/26 05:43:09;;;;;;;93.30;15.20;;;14.60;99.90;;;;;;4988017;28;20672;-94
2021/09/26 05:45:35;;;;;;;133.60;13.93;;;14.70;99.90;;;;;;4988555;28;20830;-95
2021/09/26 05:48:01;;;;;;;96.47;13.30;;;15.00;99.90;;;;;;4987371;28;20558;-94
2021/09/26 05:50:27;;;;;;;84.27;13.80;;;15.10;99.90;;;;;;5003624;28;20310;-94
2021/09/26 05:52:53;;;;;;;54.57;12.40;;;15.10;99.90;;;;;;4987904;28;20231;-95
2021/09/26 05:55:18;;;;;;;92.60;13.97;;;15.00;99.90;;;;;;4987154;28;20231;-94
2021/09/26 05:57:44;;;;;;;50.43;14.27;;;15.10;99.90;;;;;;4971889;28;20975;-92
2021/09/26 06:00:10;;;;;;;32.50;12.77;;;15.10;99.90;;;;;;4972056;28;20219;-94
2021/09/26 06:02:36;;;;;;;59.83;14.57;;;15.10;99.90;;;;;;5005035;28;20310;-94
2021/09/26 06:05:07;;;;;;;51.43;12.83;;;15.10;99.90;;;;;;4988091;28;20247;-94
2021/09/26 06:07:33;;;;;;;34.83;13.27;;;15.20;99.90;;;;;;5002239;28;20544;-95
2021/09/26 06:10:00;;;;;;;29.17;13.23;;;15.20;99.90;;;;;;5005111;28;20234;-92
2021/09/26 06:12:26;;;;;;;38.10;12.37;;;15.30;99.90;;;;;;4996083;28;20207;-93
2021/09/26 06:14:52;;;;;;;30.63;13.80;;;15.30;99.90;;;;;;4995345;28;20227;-89
2021/09/26 06:17:18;;;;;;;33.90;14.03;;;15.30;99.90;;;;;;5002705;28;20799;-88
2021/09/26 06:19:43;;;;;;;52.57;15.83;;;15.30;99.90;;;;;;5002368;28;20226;-88
2021/09/26 06:22:09;;;;;;;70.87;15.57;;;15.20;99.90;;;;;;4987876;28;20227;-88
2021/09/26 06:24:35;;;;;;;48.10;13.20;;;15.20;99.90;;;;;;4987253;28;21037;-88
2021/09/26 06:27:01;;;;;;;44.40;15.57;;;15.30;99.90;;;;;;5003537;28;20642;-88
2021/09/26 06:29:27;;;;;;;29.33;17.27;;;15.50;99.90;;;;;;4970975;28;20227;-90
2021/09/26 06:31:53;;;;;;;34.77;18.43;;;15.60;99.90;;;;;;4971066;28;20314;-88
2021/09/26 06:34:18;;;;;;;41.53;19.13;;;15.90;99.90;;;;;;4986369;28;20246;-88
2021/09/26 06:36:44;;;;;;;44.07;19.07;;;16.20;99.90;;;;;;4987564;28;21022;-90
2021/09/26 06:39:11;;;;;;;45.60;20.50;;;16.50;99.90;;;;;;4970719;28;20215;-88
2021/09/26 06:41:37;;;;;;;51.47;22.60;;;16.70;99.90;;;;;;5002979;28;20215;-88
2021/09/26 06:44:03;;;;;;;47.93;22.53;;;17.00;99.90;;;;;;4985799;28;20334;-87
2021/09/26 06:46:29;;;;;;;44.23;21.83;;;17.30;99.90;;;;;;5002687;28;20222;-88
2021/09/26 06:48:55;;;;;;;34.23;17.30;;;17.60;99.90;;;;;;4986545;28;20192;-89
2021/09/26 06:51:21;;;;;;;29.73;16.50;;;17.90;99.90;;;;;;4988523;28;20198;-89
2021/09/26 06:53:47;;;;;;;23.97;14.43;;;18.30;99.90;;;;;;4969919;28;20293;-89
2021/09/26 06:56:12;;;;;;;25.10;13.07;;;18.60;99.90;;;;;;4971880;28;20236;-92
2021/09/26 06:58:38;;;;;;;20.80;12.30;;;19.00;99.90;;;;;;4996540;28;20302;-90
2021/09/26 07:01:05;;;;;;;19.80;11.27;;;19.10;99.90;;;;;;4986345;28;20731;-89
2021/09/26 07:03:31;;;;;;;23.20;11.63;;;19.30;99.90;;;;;;5004398;28;20188;-90
2021/09/26 07:05:57;;;;;;;17.90;9.80;;;19.50;99.90;;;;;;5003461;28;20223;-91
2021/09/26 07:08:23;;;;;;;18.10;10.37;;;19.70;99.90;;;;;;5020318;28;20293;-91
2021/09/26 07:10:49;;;;;;;17.17;10.17;;;19.80;99.90;;;;;;4986899;28;20916;-91
2021/09/26 07:13:14;;;;;;;17.17;10.07;;;19.70;99.90;;;;;;4988134;28;20943;-90
2021/09/26 07:15:40;;;;;;;17.53;10.77;;;19.20;99.90;;;;;;4975001;28;20219;-89
2021/09/26 07:18:06;;;;;;;23.67;12.13;;;18.70;99.90;;;;;;4990446;28;20269;-89
2021/09/26 07:20:32;;;;;;;16.20;11.23;;;18.60;99.90;;;;;;4991439;28;20231;-92
2021/09/26 07:23:02;;;;;;;17.70;10.77;;;19.20;99.90;;;;;;5039945;28;20708;-90
2021/09/26 07:25:29;;;;;;;19.03;10.93;;;19.70;99.90;;;;;;4989961;28;20305;-91
2021/09/26 07:27:56;;;;;;;16.40;9.70;;;20.20;99.90;;;;;;4989662;28;20195;-91
2021/09/26 07:30:22;;;;;;;15.50;10.07;;;20.30;99.90;;;;;;4989361;28;20203;-90
2021/09/26 07:32:48;;;;;;;18.67;10.30;;;20.20;99.90;;;;;;5006826;28;20227;-90
2021/09/26 07:35:15;;;;;;;14.97;9.23;;;20.10;99.90;;;;;;5005956;28;20270;-89
2021/09/26 07:37:41;;;;;;;16.67;10.17;;;19.90;99.90;;;;;;5015132;28;20228;-90
2021/09/26 07:40:09;;;;;;;20.10;10.00;;;20.30;99.90;;;;;;5005287;28;20279;-88
2021/09/26 07:42:34;;;;;;;16.63;11.00;;;20.30;99.90;;;;;;4991030;28;20230;-90
2021/09/26 07:45:03;;;;;;;18.13;9.70;;;20.50;99.90;;;;;;5015398;28;20247;-94
2021/09/26 07:47:30;;;;;;;15.10;9.67;;;20.50;99.90;;;;;;4999554;28;20226;-91
2021/09/26 07:49:56;;;;;;;14.97;9.90;;;20.80;99.90;;;;;;4990014;28;20294;-90
2021/09/26 07:52:25;;;;;;;13.85;10.07;;;20.60;99.90;;;;;;5038750;28;20687;-90
2021/09/26 07:54:51;;;;;;;16.83;9.50;;;20.50;99.90;;;;;;5004629;28;20278;-91
2021/09/26 07:57:19;;;;;;;17.10;9.27;;;20.70;99.90;;;;;;5022932;28;20218;-91
2021/09/26 07:59:49;;;;;;;13.35;9.05;;;21.00;99.90;;;;;;5022822;28;20226;-90
2021/09/26 08:02:15;;;;;;;13.18;8.77;;;20.80;99.90;;;;;;5006091;28;20253;-91
2021/09/26 08:04:41;;;;;;;14.20;8.33;;;21.10;99.90;;;;;;5021680;28;20227;-89
2021/09/26 08:07:07;;;;;;;14.95;9.50;;;21.20;99.90;;;;;;5022309;28;21022;-90
2021/09/26 08:09:33;;;;;;;19.40;10.32;;;21.10;99.90;;;;;;4989885;28;20264;-91
2021/09/26 08:11:59;;;;;;;14.25;8.40;;;21.10;99.90;;;;;;4987237;28;20281;-91
2021/09/26 08:14:25;;;;;;;15.35;10.60;;;21.10;99.90;;;;;;4990216;28;20231;-91
2021/09/26 08:16:51;;;;;;;13.38;8.70;;;21.40;99.90;;;;;;4974088;28;20219;-92
2021/09/26 08:19:17;;;;;;;13.25;8.93;;;21.70;99.90;;;;;;5007550;28;20564;-89
2021/09/26 08:21:43;;;;;;;16.15;9.70;;;21.70;99.90;;;;;;4990382;28;20625;-91
2021/09/26 08:24:08;;;;;;;11.75;8.10;;;21.20;99.90;;;;;;5020720;28;20756;-89
2021/09/26 08:26:35;;;;;;;13.65;8.52;;;21.10;99.90;;;;;;5022061;28;20227;-90
2021/09/26 08:29:01;;;;;;;13.55;9.18;;;21.30;99.90;;;;;;5022171;28;20747;-91
2021/09/26 08:31:27;;;;;;;12.77;9.20;;;21.20;99.90;;;;;;5004539;28;20231;-91
2021/09/26 08:33:53;;;;;;;13.43;8.80;;;21.40;99.90;;;;;;5021748;28;20215;-91
2021/09/26 08:36:19;;;;;;;12.40;8.25;;;21.40;99.90;;;;;;5005012;28;20195;-90
2021/09/26 08:38:45;;;;;;;12.02;8.18;;;21.70;99.90;;;;;;5021841;28;20237;-89
2021/09/26 08:41:12;;;;;;;12.95;8.00;;;21.50;99.90;;;;;;5005298;28;20607;-92
2021/09/26 08:43:39;;;;;;;14.65;9.02;;;21.20;99.90;;;;;;5023025;28;20230;-89
2021/09/26 08:46:06;;;;;;;16.40;9.60;;;21.30;99.90;;;;;;5017217;28;20188;-91
2021/09/26 08:48:33;;;;;;;9.90;7.28;;;21.90;99.90;;;;;;5031570;28;20188;-90
2021/09/26 08:50:58;;;;;;;14.25;8.75;;;21.70;99.90;;;;;;5018256;28;20236;-88
2021/09/26 08:53:25;;;;;;;11.68;7.72;;;20.80;99.90;;;;;;4997136;28;20215;-92
2021/09/26 08:55:52;;;;;;;12.82;8.02;;;20.50;99.90;;;;;;5035711;28;20234;-89
2021/09/26 08:58:19;;;;;;;12.82;8.23;;;19.90;99.90;;;;;;5004135;28;20580;-89
2021/09/26 09:00:45;;;;;;;13.45;8.27;;;20.00;99.90;;;;;;5012786;28;20202;-87
2021/09/26 09:03:15;;;;;;;13.95;8.48;;;20.00;99.90;;;;;;5003080;28;20310;-89
2021/09/26 09:05:42;;;;;;;13.43;9.60;;;20.00;99.90;;;;;;5003539;28;20227;-91
2021/09/26 09:08:13;;;;;;;13.23;8.67;;;20.10;99.90;;;;;;5002828;28;20212;-92
2021/09/26 09:10:41;;;;;;;15.30;8.33;;;20.10;99.90;;;;;;4986572;28;20218;-90
2021/09/26 09:13:10;;;;;;;16.33;8.97;;;20.40;99.90;;;;;;5036315;28;20285;-91
2021/09/26 09:15:36;;;;;;;12.43;8.80;;;20.20;99.90;;;;;;4970386;28;20220;-92
2021/09/26 09:18:05;;;;;;;18.07;10.20;;;20.20;99.90;;;;;;5003499;28;20461;-92
2021/09/26 09:20:34;;;;;;;14.03;8.63;;;20.40;99.90;;;;;;5020010;28;20223;-89
2021/09/26 09:23:18;;;;;;;15.23;10.33;;;20.50;99.90;;;;;;5003217;28;20246;-93
2021/09/26 09:25:45;;;;;;;20.53;9.23;;;20.80;99.90;;;;;;5003504;28;20219;-91
2021/09/26 09:28:14;;;;;;;17.40;8.83;;;20.80;99.90;;;;;;5034884;28;20223;-90
2021/09/26 09:30:52;;;;;;;13.40;8.00;;;20.80;99.90;;;;;;5034484;28;20199;-92
2021/09/26 09:33:20;;;;;;;12.47;7.63;;;20.50;99.90;;;;;;5002998;28;20207;-91
2021/09/26 09:35:52;;;;;;;11.53;8.43;;;20.20;99.90;;;;;;5018184;28;20231;-91
2021/09/26 09:38:28;;;;;;;15.07;9.33;;;20.10;99.90;;;;;;5035128;28;20272;-91
2021/09/26 09:40:55;;;;;;;13.70;8.47;;;19.80;99.90;;;;;;5002816;28;20278;-89
2021/09/26 09:43:21;;;;;;;11.60;9.13;;;19.60;99.90;;;;;;5019210;28;20219;-93
2021/09/26 09:45:54;;;;;;;14.93;9.17;;;19.50;99.90;;;;;;5036514;28;20243;-92
2021/09/26 09:48:24;;;;;;;11.20;8.10;;;19.30;99.90;;;;;;5034107;28;20188;-91
2021/09/26 09:50:54;;;;;;;14.40;8.00;;;19.10;99.90;;;;;;5018903;28;21036;-92
2021/09/26 09:53:19;;;;;;;15.23;8.73;;;19.10;99.90;;;;;;5036086;28;20227;-91
2021/09/26 09:56:05;;;;;;;14.30;9.43;;;19.00;99.90;;;;;;5035177;28;20718;-91
2021/09/26 09:58:49;;;;;;;12.90;8.27;;;19.10;99.90;;;;;;5011712;28;20362;-89
2021/09/26 10:01:22;;;;;;;14.13;9.27;;;19.10;99.90;;;;;;5003491;28;20226;-92
2021/09/26 10:03:51;;;;;;;18.90;9.90;;;19.20;99.90;;;;;;5035042;28;20196;-90
2021/09/26 10:06:27;;;;;;;13.90;9.40;;;19.20;99.90;;;;;;5035323;28;20234;-91
2021/09/26 10:08:55;;;;;;;11.90;7.87;;;19.30;99.90;;;;;;5033336;28;20228;-92
2021/09/26 10:11:21;;;;;;;17.40;9.37;;;19.30;99.90;;;;;;5018718;28;20234;-89
2021/09/26 10:13:47;;;;;;;14.93;9.53;;;19.30;99.90;;;;;;5017459;28;20231;-91
2021/09/26 10:16:13;;;;;;;12.73;9.00;;;19.10;99.90;;;;;;5013787;28;20227;-91
2021/09/26 10:18:42;;;;;;;11.17;8.33;;;19.10;99.90;;;;;;5031674;28;20229;-92
2021/09/26 10:21:10;;;;;;;14.83;9.10;;;18.90;99.90;;;;;;5011742;28;20559;-91
2021/09/26 10:23:36;;;;;;;14.63;9.23;;;18.90;99.90;;;;;;4996497;28;20238;-89
2021/09/26 10:26:02;;;;;;;15.03;9.33;;;18.90;99.90;;;;;;4999536;28;20386;-91
2021/09/26 10:28:31;;;;;;;16.63;9.77;;;18.90;99.90;;;;;;5016651;28;20250;-89
2021/09/26 10:31:01;;;;;;;18.93;10.13;;;18.80;99.90;;;;;;5000364;28;20191;-91
2021/09/26 10:33:27;;;;;;;16.50;10.37;;;18.80;99.90;;;;;;5001698;28;20227;-92
2021/09/26 10:35:55;;;;;;;15.93;9.20;;;18.80;99.90;;;;;;4998394;28;20235;-92
2021/09/26 10:38:22;;;;;;;15.47;9.10;;;18.80;99.90;;;;;;5030937;28;20310;-94
2021/09/26 10:40:48;;;;;;;18.03;10.43;;;18.80;99.90;;;;;;5014620;28;20223;-91
2021/09/26 10:43:29;;;;;;;12.40;8.63;;;18.80;99.90;;;;;;4996455;28;20257;-91
2021/09/26 10:46:13;;;;;;;19.00;9.30;;;18.80;99.90;;;;;;4996986;28;20196;-91
2021/09/26 10:49:08;;;;;;;18.03;8.80;;;18.80;99.90;;;;;;5037815;28;20198;-92
2021/09/26 10:51:51;;;;;;;14.10;9.17;;;18.70;99.90;;;;;;5006910;28;20208;-91
2021/09/26 10:54:35;;;;;;;17.20;9.53;;;18.50;99.90;;;;;;5003086;28;20406;-94
2021/09/26 10:57:03;;;;;;;14.37;9.87;;;18.50;99.90;;;;;;5002207;28;20263;-91
2021/09/26 10:59:45;;;;;;;14.63;8.93;;;18.60;99.90;;;;;;5036001;28;20239;-91
2021/09/26 11:02:23;;;;;;;14.17;9.50;;;18.60;99.90;;;;;;5033140;28;20215;-91
2021/09/26 11:04:58;;;;;;;17.03;9.77;;;18.60;99.90;;;;;;5037863;28;20258;-90
2021/09/26 11:07:27;;;;;;;16.80;10.40;;;18.50;99.90;;;;;;5013938;28;20302;-91
2021/09/26 11:10:01;;;;;;;14.13;9.30;;;18.50;99.90;;;;;;5006949;28;20183;-90
2021/09/26 11:12:48;;;;;;;14.80;9.10;;;18.60;99.90;;;;;;5007307;28;20297;-93
2021/09/26 11:15:23;;;;;;;16.53;8.13;;;18.60;99.90;;;;;;5005458;28;20219;-90
2021/09/26 11:17:57;;;;;;;15.60;9.50;;;18.60;99.90;;;;;;5004962;28;20594;-92
2021/09/26 11:20:25;;;;;;;16.13;10.27;;;18.70;99.90;;;;;;5036570;28;20230;-91
2021/09/26 11:23:08;;;;;;;15.97;9.40;;;18.80;99.90;;;;;;5003855;28;20219;-88
2021/09/26 11:25:56;;;;;;;18.77;10.07;;;19.00;99.90;;;;;;5038529;28;20584;-89
2021/09/26 11:28:32;;;;;;;15.47;9.27;;;19.30;99.90;;;;;;5003744;28;20215;-87
2021/09/26 11:30:58;;;;;;;19.73;9.37;;;19.40;99.90;;;;;;5038422;28;20179;-87
2021/09/26 11:33:24;;;;;;;14.80;7.97;;;19.50;99.90;;;;;;4988916;28;20199;-89
2021/09/26 11:35:50;;;;;;;16.67;9.70;;;19.50;99.90;;;;;;5004520;28;20606;-88
2021/09/26 11:38:19;;;;;;;17.20;10.23;;;19.60;99.90;;;;;;5035432;28;21113;-88
2021/09/26 11:41:00;;;;;;;15.87;9.20;;;19.80;99.90;;;;;;5012707;28;20302;-88
2021/09/26 11:43:29;;;;;;;16.53;9.30;;;20.00;99.90;;;;;;5037501;28;20214;-88
2021/09/26 11:46:00;;;;;;;13.83;9.27;;;20.00;99.90;;;;;;5006576;28;20207;-88
2021/09/26 11:48:32;;;;;;;17.10;9.57;;;20.20;99.90;;;;;;5039382;28;20278;-88
2021/09/26 11:51:03;;;;;;;13.17;8.43;;;20.60;99.90;;;;;;5006224;28;20219;-88
2021/09/26 11:53:29;;;;;;;17.17;9.10;;;20.90;99.90;;;;;;5004301;28;20219;-87
2021/09/26 11:55:56;;;;;;;13.13;8.93;;;21.30;99.90;;;;;;5019995;28;20241;-88
2021/09/26 11:58:29;;;;;;;15.60;8.47;;;21.60;99.90;;;;;;5037022;28;20215;-87
2021/09/26 12:00:54;;;;;;;12.70;8.13;;;21.40;99.90;;;;;;5006763;28;21270;-88
2021/09/26 12:03:27;;;;;;;16.30;8.73;;;21.40;99.90;;;;;;5000543;28;20190;-88
2021/09/26 12:05:56;;;;;;;13.03;9.23;;;21.50;99.90;;;;;;5037386;28;20223;-87
2021/09/26 12:08:24;;;;;;;12.10;8.00;;;21.80;99.90;;;;;;5020253;28;20320;-90
2021/09/26 12:11:09;;;;;;;18.57;8.87;;;21.70;99.90;;;;;;5005347;28;20211;-90
2021/09/26 12:13:53;;;;;;;13.60;8.83;;;21.70;99.90;;;;;;5011417;28;20223;-93
2021/09/26 12:16:21;;;;;;;14.77;8.07;;;21.70;99.90;;;;;;5037925;28;20247;-89
2021/09/26 12:18:55;;;;;;;12.67;7.93;;;21.50;99.90;;;;;;5021960;28;20203;-89
2021/09/26 12:21:25;;;;;;;15.20;8.70;;;21.60;99.90;;;;;;4987861;28;20265;-92
2021/09/26 12:24:01;;;;;;;13.20;7.77;;;21.80;99.90;;;;;;5004526;28;20227;-90
2021/09/26 12:26:37;;;;;;;14.23;8.73;;;21.50;99.90;;;;;;5033808;28;20219;-91
2021/09/26 12:29:18;;;;;;;11.93;7.80;;;21.50;99.90;;;;;;5013512;28;20241;-93
2021/09/26 12:31:46;;;;;;;13.67;8.57;;;21.50;99.90;;;;;;5004086;28;20242;-90
2021/09/26 12:34:45;;;;;;;11.90;8.17;;;21.60;99.90;;;;;;5038968;28;20228;-90
2021/09/26 12:37:21;;;;;;;14.73;8.43;;;21.30;99.90;;;;;;4992062;28;21048;-90
2021/09/26 12:39:51;;;;;;;15.73;8.40;;;21.20;99.90;;;;;;5004294;28;20191;-91